📊 Raw Sensor Data
Showing records 41376 to 41400 of 84,981 total
| ID | Distance (ft) | Battery V | Battery A | Int Temp (°F) | Int Humid (%) | Ext Temp (°F) | Solar V | RSSI | SNR | Time Stamp |
|---|---|---|---|---|---|---|---|---|---|---|
| 43618 | 15.4 | 3.93 | -5 | 52 | 45 | 53 | 0.00 | -68 | 8 | 06/16/2025 12:45 AM |
| 43617 | 15.4 | 4.00 | -5 | 53 | 45 | 55 | 0.00 | -68 | 8 | 06/16/2025 12:30 AM |
| 43616 | 15.4 | 4.00 | -5 | 54 | 45 | 55 | 0.00 | -67 | 8 | 06/16/2025 12:15 AM |
| 43615 | 15.4 | 3.93 | -5 | 55 | 45 | 56 | 0.00 | -66 | 7 | 06/16/2025 12:00 AM |
| 43614 | 15.4 | 3.93 | -5 | 56 | 45 | 57 | 0.00 | -66 | 8 | 06/15/2025 11:45 PM |
| 43613 | 15.4 | 3.93 | -5 | 57 | 46 | 58 | 0.00 | -67 | 8 | 06/15/2025 11:30 PM |
| 43612 | 15.4 | 3.93 | -5 | 57 | 46 | 58 | 0.00 | -68 | 7 | 06/15/2025 11:15 PM |
| 43611 | 15.4 | 3.93 | -5 | 58 | 46 | 60 | 0.00 | -67 | 7 | 06/15/2025 11:00 PM |
| 43610 | 15.4 | 3.93 | -5 | 59 | 47 | 60 | 0.00 | -67 | 8 | 06/15/2025 10:45 PM |
| 43609 | 15.4 | 4.01 | -5 | 60 | 47 | 60 | 0.00 | -68 | 8 | 06/15/2025 10:30 PM |
| 43608 | 15.4 | 4.01 | -5 | 61 | 48 | 62 | 0.00 | -67 | 8 | 06/15/2025 10:15 PM |
| 43607 | 15.4 | 3.94 | -5 | 62 | 48 | 63 | 0.00 | -67 | 8 | 06/15/2025 10:00 PM |
| 43606 | 15.4 | 3.94 | -5 | 63 | 49 | 65 | 0.00 | -68 | 8 | 06/15/2025 09:45 PM |
| 43605 | 15.4 | 3.94 | -5 | 64 | 50 | 65 | 0.00 | -68 | 8 | 06/15/2025 09:30 PM |
| 43604 | 15.4 | 3.94 | -5 | 66 | 51 | 66 | 0.00 | -69 | 8 | 06/15/2025 09:15 PM |
| 43603 | 15.4 | 3.94 | -5 | 68 | 53 | 67 | 0.00 | -68 | 8 | 06/15/2025 09:00 PM |
| 43602 | 15.4 | 4.01 | -5 | 70 | 54 | 69 | 1.20 | -69 | 8 | 06/15/2025 08:45 PM |
| 43601 | 15.5 | 3.94 | -10 | 73 | 55 | 70 | 3.40 | -68 | 8 | 06/15/2025 08:30 PM |
| 43600 | 15.5 | 4.03 | 0 | 78 | 54 | 73 | 4.50 | -68 | 8 | 06/15/2025 08:15 PM |
| 43599 | 15.5 | 4.05 | 7 | 80 | 56 | 75 | 4.60 | -70 | 8 | 06/15/2025 08:00 PM |
| 43598 | 15.6 | 4.05 | 9 | 85 | 55 | 77 | 4.50 | -69 | 7 | 06/15/2025 07:45 PM |
| 43597 | 15.6 | 4.06 | -5 | 89 | 53 | 82 | 4.60 | -67 | 8 | 06/15/2025 07:30 PM |
| 43596 | 15.7 | 4.01 | -7 | 92 | 53 | 84 | 4.50 | -69 | 8 | 06/15/2025 07:15 PM |
| 43595 | 15.7 | 4.11 | 14 | 95 | 52 | 86 | 4.50 | -68 | 7 | 06/15/2025 07:00 PM |
| 43594 | 15.7 | 4.00 | 0 | 97 | 52 | 87 | 5.10 | -68 | 8 | 06/15/2025 06:45 PM |